createdAt,value
2019-03-16T00:00:40.484Z,110.60
2019-03-16T00:03:15.129Z,113.42
2019-03-16T00:05:47.368Z,126.33
2019-03-16T00:08:19.522Z,115.70
2019-03-16T00:10:51.639Z,101.78
2019-03-16T00:13:23.873Z,112.55
2019-03-16T00:15:56.461Z,119.80
2019-03-16T00:18:28.633Z,119.00
2019-03-16T00:21:00.798Z,111.70
2019-03-16T00:23:32.881Z,117.47
2019-03-16T00:26:05.216Z,117.15
2019-03-16T00:28:37.441Z,120.42
2019-03-16T00:31:09.636Z,120.30
2019-03-16T00:33:41.852Z,113.83
2019-03-16T00:36:13.943Z,115.00
2019-03-16T00:38:46.065Z,99.87
2019-03-16T00:41:18.175Z,114.05
2019-03-16T00:43:50.306Z,112.75
2019-03-16T00:46:22.440Z,101.20
2019-03-16T00:48:54.569Z,104.23
2019-03-16T00:51:26.658Z,99.37
2019-03-16T00:53:58.879Z,96.22
2019-03-16T00:56:30.957Z,84.07
2019-03-16T00:59:03.109Z,89.87
2019-03-16T01:01:35.275Z,90.17
2019-03-16T01:04:09.476Z,95.67
2019-03-16T01:06:41.685Z,98.33
2019-03-16T01:09:13.984Z,96.35
2019-03-16T01:11:46.117Z,97.12
2019-03-16T01:14:18.234Z,101.82
2019-03-16T01:16:50.401Z,108.12
2019-03-16T01:19:25.920Z,92.27
2019-03-16T01:21:58.168Z,99.47
2019-03-16T01:24:36.596Z,104.78
2019-03-16T01:27:16.331Z,103.38
2019-03-16T01:29:48.542Z,118.00
2019-03-16T01:32:24.031Z,113.57
2019-03-16T01:34:57.175Z,114.52
2019-03-16T01:37:29.247Z,108.72
2019-03-16T01:40:03.030Z,109.05
2019-03-16T01:42:37.844Z,114.97
2019-03-16T01:45:10.263Z,115.03
2019-03-16T01:47:42.348Z,103.78
2019-03-16T01:50:15.084Z,96.53
2019-03-16T01:52:47.242Z,99.58
2019-03-16T01:55:19.357Z,100.97
2019-03-16T01:57:52.141Z,100.58
2019-03-16T02:00:24.233Z,103.55
2019-03-16T02:02:56.382Z,103.38
2019-03-16T02:05:29.616Z,112.10
2019-03-16T02:08:02.550Z,112.52
2019-03-16T02:10:35.884Z,102.75
2019-03-16T02:13:08.186Z,108.70
2019-03-16T02:15:40.364Z,105.45
2019-03-16T02:18:13.698Z,100.58
2019-03-16T02:20:45.820Z,96.70
2019-03-16T02:23:18.026Z,100.12
2019-03-16T02:25:51.256Z,105.65
2019-03-16T02:28:23.790Z,96.05
2019-03-16T02:30:55.868Z,101.82
2019-03-16T02:33:28.029Z,112.35
2019-03-16T02:36:00.124Z,109.87
2019-03-16T02:38:32.235Z,106.78
2019-03-16T02:41:04.477Z,106.45
2019-03-16T02:43:36.603Z,107.87
2019-03-16T02:46:08.723Z,109.50
2019-03-16T02:48:40.822Z,109.07
2019-03-16T02:51:12.943Z,101.35
2019-03-16T02:53:45.168Z,107.87
2019-03-16T02:56:17.300Z,107.20
2019-03-16T02:58:49.766Z,111.03
2019-03-16T03:01:21.907Z,105.65
2019-03-16T03:03:54.412Z,111.68
2019-03-16T03:06:26.646Z,95.70
2019-03-16T03:08:58.741Z,98.35
2019-03-16T03:11:30.868Z,110.52
2019-03-16T03:14:03.729Z,110.80
2019-03-16T03:16:35.964Z,101.87
2019-03-16T03:19:08.334Z,114.30
2019-03-16T03:21:40.480Z,101.55
2019-03-16T03:24:13.037Z,101.90
2019-03-16T03:26:45.463Z,107.70
2019-03-16T03:29:17.554Z,111.97
2019-03-16T03:31:49.705Z,100.42
2019-03-16T03:34:21.837Z,105.63
2019-03-16T03:36:53.966Z,114.75
2019-03-16T03:39:26.044Z,116.37
2019-03-16T03:41:58.334Z,115.03
2019-03-16T03:44:30.469Z,104.97
2019-03-16T03:47:02.621Z,104.83
2019-03-16T03:49:35.130Z,102.65
2019-03-16T03:52:07.365Z,98.50
2019-03-16T03:54:39.449Z,98.92
2019-03-16T03:57:11.735Z,102.10
2019-03-16T03:59:44.525Z,105.50
2019-03-16T04:02:16.860Z,106.95
2019-03-16T04:04:49.187Z,99.92
2019-03-16T04:07:21.683Z,100.75
2019-03-16T04:09:53.817Z,102.15
2019-03-16T04:12:26.065Z,95.50
2019-03-16T04:14:58.164Z,101.07
2019-03-16T04:17:30.765Z,97.35
2019-03-16T04:20:03.657Z,97.33
2019-03-16T04:22:36.110Z,96.95
2019-03-16T04:25:08.468Z,96.53
2019-03-16T04:27:40.611Z,95.38
2019-03-16T04:30:13.641Z,95.53
2019-03-16T04:32:45.725Z,92.92
2019-03-16T04:35:17.838Z,101.70
2019-03-16T04:37:49.967Z,96.93
2019-03-16T04:40:22.295Z,96.20
2019-03-16T04:42:54.385Z,102.10
2019-03-16T04:45:26.531Z,94.52
2019-03-16T04:47:58.593Z,95.90
2019-03-16T04:50:30.751Z,90.80
2019-03-16T04:53:03.278Z,90.70
2019-03-16T04:55:35.413Z,88.33
2019-03-16T04:58:07.515Z,91.30
2019-03-16T05:00:39.705Z,89.40
2019-03-16T05:03:11.821Z,83.82
2019-03-16T05:05:43.903Z,83.85
2019-03-16T05:08:16.231Z,88.40
2019-03-16T05:10:48.350Z,84.20
2019-03-16T05:13:20.487Z,78.25
2019-03-16T05:15:52.558Z,90.07
2019-03-16T05:18:24.682Z,86.67
2019-03-16T05:20:56.994Z,101.02
2019-03-16T05:23:29.044Z,88.67
2019-03-16T05:26:01.822Z,85.23
2019-03-16T05:28:33.995Z,84.85
2019-03-16T05:31:07.240Z,85.87
2019-03-16T05:33:39.717Z,93.33
2019-03-16T05:36:11.800Z,84.17
2019-03-16T05:38:43.932Z,89.10
2019-03-16T05:41:16.146Z,85.80
2019-03-16T05:43:48.299Z,93.80
2019-03-16T05:46:20.459Z,89.72
2019-03-16T05:48:52.999Z,88.05
2019-03-16T05:51:25.128Z,81.37
2019-03-16T05:53:57.250Z,86.55
2019-03-16T05:56:29.402Z,85.83
2019-03-16T05:59:01.916Z,81.08
2019-03-16T06:01:34.060Z,81.15
2019-03-16T06:04:06.373Z,87.22
2019-03-16T06:06:38.449Z,109.97
2019-03-16T06:09:10.595Z,93.70
2019-03-16T06:11:42.761Z,91.45
2019-03-16T06:14:14.985Z,90.93
2019-03-16T06:16:47.129Z,95.13
2019-03-16T06:19:19.209Z,94.20
2019-03-16T06:21:52.341Z,91.85
2019-03-16T06:24:24.425Z,89.87
2019-03-16T06:26:57.155Z,84.87
2019-03-16T06:29:29.234Z,80.55
2019-03-16T06:32:01.411Z,75.33
2019-03-16T06:34:35.994Z,77.00
2019-03-16T06:37:08.148Z,76.12
2019-03-16T06:39:40.775Z,77.87
2019-03-16T06:42:13.218Z,87.30
2019-03-16T06:44:45.389Z,82.53
2019-03-16T06:47:17.847Z,89.50
2019-03-16T06:49:49.967Z,81.85
2019-03-16T06:52:22.397Z,80.70
2019-03-16T06:54:54.506Z,80.97
2019-03-16T06:57:26.589Z,86.32
2019-03-16T06:59:58.746Z,73.93
2019-03-16T07:02:30.873Z,82.17
2019-03-16T07:05:04.200Z,75.50
2019-03-16T07:07:36.313Z,84.28
2019-03-16T07:10:09.477Z,81.30
2019-03-16T07:12:41.593Z,74.53
2019-03-16T07:15:13.730Z,72.40
2019-03-16T07:17:45.855Z,88.50
2019-03-16T07:20:18.110Z,68.78
2019-03-16T07:22:50.474Z,76.25
2019-03-16T07:25:22.710Z,65.43
2019-03-16T07:27:54.882Z,61.88
2019-03-16T07:30:28.045Z,78.52
2019-03-16T07:33:00.280Z,67.25
2019-03-16T07:35:32.408Z,64.82
2019-03-16T07:38:04.488Z,63.80
2019-03-16T07:40:36.727Z,62.98
2019-03-16T07:43:08.840Z,66.00
2019-03-16T07:45:40.974Z,67.90
2019-03-16T07:48:13.276Z,68.05
2019-03-16T07:50:45.416Z,67.17
2019-03-16T07:53:17.722Z,67.45
2019-03-16T07:55:49.799Z,74.53
2019-03-16T07:58:21.931Z,76.55
2019-03-16T08:00:54.018Z,67.42
2019-03-16T08:03:27.367Z,71.12
2019-03-16T08:06:00.561Z,76.20
2019-03-16T08:08:32.736Z,72.95
2019-03-16T08:11:04.918Z,64.97
2019-03-16T08:13:37.061Z,66.67
2019-03-16T08:16:09.172Z,57.95
2019-03-16T08:18:41.366Z,48.25
2019-03-16T08:21:13.534Z,47.55
2019-03-16T08:23:45.644Z,43.48
2019-03-16T08:26:17.816Z,44.80
2019-03-16T08:28:49.966Z,47.23
2019-03-16T08:31:22.088Z,39.60
2019-03-16T08:33:54.231Z,37.17
2019-03-16T08:36:26.495Z,33.95
2019-03-16T08:39:02.613Z,37.75
2019-03-16T08:41:36.026Z,50.28
2019-03-16T08:44:08.255Z,39.90
2019-03-16T08:46:40.488Z,45.60
2019-03-16T08:49:12.591Z,42.20
2019-03-16T08:51:45.173Z,46.08
2019-03-16T08:54:17.378Z,48.55
2019-03-16T08:56:49.529Z,41.00
2019-03-16T08:59:24.349Z,46.30
2019-03-16T09:01:55.463Z,34.95
2019-03-16T09:04:27.544Z,34.05
2019-03-16T09:07:00.074Z,29.80
2019-03-16T09:09:32.206Z,30.68
2019-03-16T09:12:07.118Z,30.02
2019-03-16T09:14:39.378Z,27.45
2019-03-16T09:17:11.693Z,31.37
2019-03-16T09:19:43.776Z,35.28
2019-03-16T09:22:16.055Z,31.87
2019-03-16T09:24:48.230Z,28.23
2019-03-16T09:27:30.728Z,27.02
2019-03-16T09:29:54.564Z,30.82
2019-03-16T09:32:26.677Z,27.73
2019-03-16T09:34:58.828Z,33.90
2019-03-16T09:37:30.951Z,27.52
2019-03-16T09:40:03.092Z,24.47
2019-03-16T09:42:36.756Z,34.23
2019-03-16T09:45:11.044Z,29.37
2019-03-16T09:47:43.315Z,27.77
2019-03-16T09:50:15.854Z,26.82
2019-03-16T09:52:47.977Z,23.38
2019-03-16T09:55:20.145Z,28.75
2019-03-16T09:57:52.250Z,25.65
2019-03-16T10:00:24.425Z,26.42
2019-03-16T10:02:56.912Z,23.52
2019-03-16T10:05:29.053Z,21.37
2019-03-16T10:08:01.138Z,22.42
2019-03-16T10:10:33.290Z,24.43
2019-03-16T10:13:06.388Z,25.30
2019-03-16T10:15:38.631Z,25.85
2019-03-16T10:18:11.128Z,36.93
2019-03-16T10:20:43.298Z,27.67
2019-03-16T10:23:15.511Z,628.40
2019-03-16T10:25:47.713Z,107.55
2019-03-16T10:28:19.850Z,34.60
2019-03-16T10:30:52.062Z,30.65
2019-03-16T10:33:24.258Z,29.85
2019-03-16T10:35:56.387Z,34.43
2019-03-16T10:38:28.553Z,27.27
2019-03-16T10:41:00.650Z,30.68
2019-03-16T10:43:32.892Z,29.50
2019-03-16T10:46:05.151Z,37.08
2019-03-16T10:48:37.826Z,30.10
2019-03-16T10:51:10.159Z,24.32
2019-03-16T10:53:42.320Z,31.75
2019-03-16T10:56:14.461Z,25.60
2019-03-16T10:58:56.151Z,25.40
2019-03-16T11:01:20.541Z,27.20
2019-03-16T11:03:52.663Z,29.45
2019-03-16T11:06:25.804Z,27.32
2019-03-16T11:08:57.953Z,29.65
2019-03-16T11:11:30.137Z,27.35
2019-03-16T11:14:02.306Z,28.23
2019-03-16T11:16:34.410Z,28.47
2019-03-16T11:19:06.697Z,26.48
2019-03-16T11:21:38.919Z,30.90
2019-03-16T11:24:11.099Z,26.17
2019-03-16T11:26:43.234Z,30.62
2019-03-16T11:29:15.359Z,26.00
2019-03-16T11:31:47.838Z,32.88
2019-03-16T11:34:19.990Z,28.73
2019-03-16T11:36:52.320Z,23.92
2019-03-16T11:39:24.498Z,21.02
2019-03-16T11:41:56.694Z,21.07
2019-03-16T11:44:28.861Z,22.17
2019-03-16T11:47:01.099Z,22.82
2019-03-16T11:49:33.360Z,23.38
2019-03-16T11:52:07.873Z,20.90
2019-03-16T11:54:40.817Z,17.23
2019-03-16T11:57:12.969Z,18.42
2019-03-16T11:59:45.271Z,22.75
2019-03-16T12:02:17.531Z,20.60
2019-03-16T12:04:49.700Z,19.80
2019-03-16T12:07:21.846Z,19.35
2019-03-16T12:09:53.979Z,20.62
2019-03-16T12:12:26.252Z,20.88
2019-03-16T12:14:58.490Z,19.85
2019-03-16T12:17:30.678Z,21.37
2019-03-16T12:20:02.762Z,21.85
2019-03-16T12:22:35.719Z,20.68
2019-03-16T12:25:07.951Z,20.92
2019-03-16T12:27:40.206Z,19.65
2019-03-16T12:30:12.579Z,16.35
2019-03-16T12:32:44.785Z,18.82
2019-03-16T12:35:17.169Z,19.90
2019-03-16T12:37:49.257Z,21.35
2019-03-16T12:40:21.494Z,20.00
2019-03-16T12:42:53.736Z,21.02
2019-03-16T12:45:26.102Z,21.50
2019-03-16T12:47:58.310Z,20.27
2019-03-16T12:50:30.728Z,21.52
2019-03-16T12:53:02.837Z,21.05
2019-03-16T12:55:35.040Z,20.55
2019-03-16T12:58:07.190Z,20.25
2019-03-16T13:00:39.387Z,20.40
2019-03-16T13:03:11.482Z,23.30
2019-03-16T13:05:43.741Z,26.65
2019-03-16T13:08:15.884Z,22.17
2019-03-16T13:10:48.043Z,20.68
2019-03-16T13:13:20.168Z,20.80
2019-03-16T13:15:52.353Z,19.60
2019-03-16T13:18:24.520Z,23.45
2019-03-16T13:20:57.014Z,18.95
2019-03-16T13:23:29.164Z,22.45
2019-03-16T13:26:01.257Z,19.65
2019-03-16T13:28:35.644Z,21.07
2019-03-16T13:31:07.247Z,23.10
2019-03-16T13:33:39.338Z,22.87
2019-03-16T13:36:11.521Z,18.60
2019-03-16T13:38:44.739Z,23.65
2019-03-16T13:41:16.869Z,22.17
2019-03-16T13:43:48.959Z,23.38
2019-03-16T13:46:21.346Z,22.07
2019-03-16T13:48:53.507Z,23.95
2019-03-16T13:51:25.654Z,18.25
2019-03-16T13:53:57.770Z,17.00
2019-03-16T13:56:30.684Z,22.45
2019-03-16T13:59:02.791Z,22.17
2019-03-16T14:01:35.546Z,23.90
2019-03-16T14:04:07.758Z,24.63
2019-03-16T14:06:41.155Z,20.32
2019-03-16T14:09:13.398Z,31.77
2019-03-16T14:11:45.487Z,25.90
2019-03-16T14:14:17.733Z,23.12
2019-03-16T14:16:49.822Z,23.45
2019-03-16T14:19:21.981Z,27.00
2019-03-16T14:21:54.118Z,19.32
2019-03-16T14:24:26.781Z,14.87
2019-03-16T14:26:59.075Z,21.52
2019-03-16T14:29:31.204Z,20.77
2019-03-16T14:32:03.282Z,17.32
2019-03-16T14:34:36.663Z,13.85
2019-03-16T14:37:08.744Z,18.98
2019-03-16T14:39:40.920Z,12.35
2019-03-16T14:42:13.484Z,15.23
2019-03-16T14:44:45.599Z,9.93
2019-03-16T14:47:17.763Z,13.58
2019-03-16T14:49:49.895Z,13.50
2019-03-16T14:52:21.999Z,12.33
2019-03-16T14:54:54.130Z,10.00
2019-03-16T14:57:26.365Z,15.90
2019-03-16T14:59:59.616Z,13.18
2019-03-16T15:02:32.820Z,14.98
2019-03-16T15:05:05.657Z,17.70
2019-03-16T15:07:37.746Z,15.63
2019-03-16T15:10:10.212Z,12.58
2019-03-16T15:12:42.975Z,19.50
2019-03-16T15:15:15.207Z,20.45
2019-03-16T15:17:47.273Z,12.70
2019-03-16T15:20:20.660Z,17.85
2019-03-16T15:22:53.677Z,14.20
2019-03-16T15:25:25.996Z,19.17
2019-03-16T15:27:58.569Z,17.80
2019-03-16T15:30:30.702Z,19.02
2019-03-16T15:33:02.999Z,15.28
2019-03-16T15:35:35.354Z,12.10
2019-03-16T15:38:08.153Z,14.58
2019-03-16T15:40:40.258Z,22.22
2019-03-16T15:43:12.919Z,18.45
2019-03-16T15:45:44.955Z,17.27
2019-03-16T15:48:17.230Z,15.18
2019-03-16T15:50:49.217Z,13.22
2019-03-16T15:53:21.226Z,12.05
2019-03-16T15:55:53.304Z,16.67
2019-03-16T15:58:25.445Z,17.00
2019-03-16T16:01:03.453Z,12.30
2019-03-16T16:03:31.134Z,22.00
2019-03-16T16:06:03.414Z,14.83
2019-03-16T16:08:35.450Z,19.37
2019-03-16T16:11:08.526Z,16.97
2019-03-16T16:13:40.584Z,16.73
2019-03-16T16:16:12.599Z,15.32
2019-03-16T16:18:44.574Z,17.27
2019-03-16T16:21:16.801Z,14.85
2019-03-16T16:23:48.831Z,19.17
2019-03-16T16:26:21.045Z,18.12
2019-03-16T16:28:53.062Z,14.33
2019-03-16T16:31:25.339Z,16.15
2019-03-16T16:33:57.547Z,19.40
2019-03-16T16:36:29.686Z,18.60
2019-03-16T16:39:01.668Z,16.87
2019-03-16T16:41:34.257Z,15.20
2019-03-16T16:44:06.378Z,19.17
2019-03-16T16:46:38.447Z,20.12
2019-03-16T16:49:11.518Z,12.63
2019-03-16T16:51:43.466Z,13.80
2019-03-16T16:54:15.475Z,17.02
2019-03-16T16:56:47.505Z,14.63
2019-03-16T16:59:19.531Z,16.12
2019-03-16T17:01:51.547Z,12.82
2019-03-16T17:04:23.573Z,17.02
2019-03-16T17:06:55.581Z,18.87
2019-03-16T17:09:31.053Z,17.42
2019-03-16T17:12:07.758Z,12.60
2019-03-16T17:14:39.888Z,14.33
2019-03-16T17:17:12.388Z,15.95
2019-03-16T17:19:44.363Z,21.95
2019-03-16T17:22:16.412Z,29.55
2019-03-16T17:24:48.484Z,37.53
2019-03-16T17:27:20.638Z,21.65
2019-03-16T17:29:52.650Z,28.32
2019-03-16T17:32:24.679Z,29.30
2019-03-16T17:34:56.664Z,22.90
2019-03-16T17:37:28.975Z,26.73
2019-03-16T17:40:07.624Z,21.73
2019-03-16T17:42:53.774Z,24.70
2019-03-16T17:45:30.400Z,19.67
2019-03-16T17:48:07.670Z,15.10
2019-03-16T17:50:43.930Z,22.55
2019-03-16T17:53:21.816Z,14.05
2019-03-16T17:56:02.828Z,22.22
2019-03-16T17:58:48.009Z,22.42
2019-03-16T18:01:26.786Z,21.57
2019-03-16T18:04:04.090Z,22.90
2019-03-16T18:12:29.381Z,23.12
2019-03-16T18:15:11.626Z,19.17
2019-03-16T18:17:42.571Z,18.65
2019-03-16T18:20:17.413Z,23.87
2019-03-16T18:22:48.854Z,27.50
2019-03-16T18:25:20.956Z,28.17
2019-03-16T18:27:52.987Z,27.85
2019-03-16T18:30:25.141Z,31.62
2019-03-16T18:32:57.181Z,25.30
2019-03-16T18:35:29.222Z,28.75
2019-03-16T18:38:01.225Z,28.57
2019-03-16T18:40:33.301Z,26.87
2019-03-16T18:43:05.364Z,24.98
2019-03-16T18:45:46.906Z,29.50
2019-03-16T18:48:24.708Z,24.00
2019-03-16T18:51:00.708Z,25.72
2019-03-16T18:53:38.969Z,24.67
2019-03-16T18:56:18.929Z,27.17
2019-03-16T18:59:01.545Z,25.75
2019-03-16T19:01:38.704Z,28.60
2019-03-16T19:04:43.544Z,21.75
2019-03-16T19:07:20.933Z,21.48
2019-03-16T19:09:58.983Z,27.67
2019-03-16T19:12:37.884Z,23.18
2019-03-16T19:15:16.368Z,24.85
2019-03-16T19:17:59.583Z,28.02
2019-03-16T19:20:44.782Z,26.07
2019-03-16T19:23:25.886Z,24.50
2019-03-16T19:26:05.537Z,21.62
2019-03-16T19:28:43.839Z,26.35
2019-03-16T19:31:23.992Z,31.12
2019-03-16T19:34:00.597Z,22.60
2019-03-16T19:36:46.190Z,25.43
2019-03-16T19:39:33.265Z,29.52
2019-03-16T19:42:13.341Z,22.00
2019-03-16T19:44:54.922Z,26.07
2019-03-16T19:47:37.285Z,21.23
2019-03-16T19:50:14.812Z,24.87
2019-03-16T19:52:53.761Z,22.98
2019-03-16T19:55:29.443Z,24.27
2019-03-16T19:58:11.879Z,27.05
2019-03-16T20:00:52.964Z,22.73
2019-03-16T20:03:26.837Z,28.57
2019-03-16T20:05:59.796Z,25.88
2019-03-16T20:08:40.255Z,25.70
2019-03-16T20:11:38.667Z,25.57
2019-03-16T20:14:22.049Z,22.25
2019-03-16T20:17:37.412Z,17.85
2019-03-16T20:20:11.828Z,18.05
2019-03-16T20:22:46.248Z,22.93
2019-03-16T20:25:25.363Z,19.85
2019-03-16T20:27:59.775Z,18.37
2019-03-16T20:30:33.118Z,22.37
2019-03-16T20:33:11.750Z,21.48
2019-03-16T20:35:50.751Z,20.43
2019-03-16T20:38:28.215Z,18.80
2019-03-16T20:41:03.793Z,13.45
2019-03-16T20:43:39.241Z,12.82
2019-03-16T20:46:43.603Z,12.65
2019-03-16T20:49:27.353Z,12.03
2019-03-16T20:52:08.465Z,11.15
2019-03-16T20:55:47.546Z,27.15
2019-03-16T20:58:28.698Z,16.95
2019-03-16T21:01:11.532Z,12.05
2019-03-16T21:03:58.777Z,10.75
2019-03-16T21:06:36.962Z,19.12
2019-03-16T21:09:14.773Z,11.70
2019-03-16T21:12:04.219Z,12.70
2019-03-16T21:14:42.125Z,12.30
2019-03-16T21:17:18.443Z,9.85
2019-03-16T21:20:31.734Z,13.15
2019-03-16T21:23:13.788Z,8.65
2019-03-16T21:25:52.000Z,5.08
2019-03-16T21:28:33.033Z,7.75
2019-03-16T21:35:09.699Z,9.98
2019-03-16T21:37:47.687Z,11.10
2019-03-16T21:40:23.833Z,7.20
2019-03-16T21:43:42.811Z,7.25
2019-03-16T21:47:13.919Z,10.03
2019-03-16T21:49:55.927Z,9.58
2019-03-16T21:52:32.539Z,6.70
2019-03-16T21:55:10.785Z,6.90
2019-03-16T21:58:54.006Z,9.20
2019-03-16T22:01:33.984Z,5.22
2019-03-16T22:04:09.314Z,5.55
2019-03-16T22:06:41.500Z,11.22
2019-03-16T22:09:13.600Z,9.23
2019-03-16T22:11:46.049Z,9.05
2019-03-16T22:14:22.590Z,10.82
2019-03-16T22:16:54.721Z,8.05
2019-03-16T22:19:27.035Z,9.18
2019-03-16T22:21:59.147Z,7.03
2019-03-16T22:24:31.305Z,6.22
2019-03-16T22:27:03.925Z,8.33
2019-03-16T22:29:39.265Z,9.15
2019-03-16T22:32:11.991Z,6.75
2019-03-16T22:34:47.713Z,8.10
2019-03-16T22:37:19.865Z,8.28
2019-03-16T22:39:56.369Z,11.45
2019-03-16T22:42:28.853Z,5.58
2019-03-16T22:45:01.474Z,7.83
2019-03-16T22:47:33.607Z,4.60
2019-03-16T22:50:06.432Z,9.73
2019-03-16T22:52:38.499Z,5.53
2019-03-16T22:55:10.854Z,5.65
2019-03-16T22:57:43.169Z,7.80
2019-03-16T23:00:15.937Z,9.33
2019-03-16T23:02:50.077Z,7.28
2019-03-16T23:05:22.291Z,8.10
2019-03-16T23:07:55.457Z,6.53
2019-03-16T23:10:29.763Z,12.05
2019-03-16T23:13:02.505Z,7.62
2019-03-16T23:15:35.709Z,13.90
2019-03-16T23:18:19.627Z,6.72
2019-03-16T23:20:58.799Z,6.78
2019-03-16T23:23:31.251Z,4.90
2019-03-16T23:26:04.710Z,6.95
2019-03-16T23:28:38.010Z,9.25
2019-03-16T23:31:19.850Z,8.00
2019-03-16T23:33:52.938Z,6.58
2019-03-16T23:36:25.106Z,8.40
2019-03-16T23:38:57.099Z,5.00
2019-03-16T23:41:29.195Z,10.70
2019-03-16T23:44:01.212Z,9.00
2019-03-16T23:46:38.891Z,7.50
2019-03-16T23:49:14.645Z,10.65
2019-03-16T23:51:46.751Z,6.90
2019-03-16T23:54:18.807Z,10.43
2019-03-16T23:56:51.316Z,6.78
2019-03-16T23:59:23.855Z,9.78
